Wenecja, Włochy

11:50 CEST dnia 30-sierpień-2015 (GMT +0200)
Venezia | | Change Station
CLOSE
Current Station
Stacja PWS
Location: Dese, Venezia
n.p.m.: 14 ft
Najbliższa stacja pogodowa

Wysokość 14 ft 45.53 °N, 12.31 °E | Updated 1 minute ago

Clear
pogodnie
90.3 ° F
Odczuwalna 98 ° F
Płn.
0.0
Wiatr zmienny Wiatr od zachodni
Gusts 0.0 mph

Dziś
Wysoka -- | Niska -- ° F
--% Prawdop. opadów
Wczoraj
Wysoka -- | Niska -- ° F
Precip. -- cali
6:29 AM 7:52 PM
Powiększający się Księżyc, 99% visible
Ciśnienie 30.12 cali
Widzialność -9999.0 mil
chmury
Odczucie gorąca 98 ° F
Punkt rosy 72 ° F
Wilgotność 55%
Opady deszczu 0.00 cali
grubość pokrywy śnieżnej Niedostępne.
UV Niedostępne.
Pyłki Niedostępne.
Jakość powietrza Niedostępne.
Flu Activity Niedostępne.
METAR LIPZ 300920Z VRB02KT CAVOK 29/19 Q1020
Ciśnienie 30.12 cali
Widzialność -9999.0 mil
chmury
Odczucie gorąca 98 ° F
Punkt rosy 72 ° F
Wilgotność 55%
Opady deszczu 0.00 cali
grubość pokrywy śnieżnej Niedostępne.
UV Niedostępne.
Pyłki Niedostępne.
Jakość powietrza Niedostępne.
Flu Activity Niedostępne.
METAR LIPZ 300920Z VRB02KT CAVOK 29/19 Q1020

10-Day Weather Forecast

×

Almanac

Astronomia

Aug. 30, 2015 Wschód Zachów
Aktualny czas
Zmierzch cywilny
Zmierzch żeglarski
świt/zmierzch astronomiczny
Księżyc
całkowite oświetlenie
Długość dnia
Tomorrow will be .
, % of the Moon is Illuminated

Dzisiejsze ekstrema

Country Highs Country Lows

Community

WunderPhotos

Upload Photos

1,850,919 zdjęcia zostały przesłane!

WunderBlogs® & News

Nearby

Jakość powietrza

  Jakość powietrza czynnik AQ Zanieczyszczenie
Not available.

Głębokość pokrywy śnieżnej

Station Depth n.p.m.

Aktywność sejsmiczna

Miejscowość Distance Mag. Time & Date
Minimum magnitude displayed is 2.5.

Temperatury wody na wybrzeżu

Miejsce Temperatura

Stations

Najbliższa stacja pogodowa

Lokalizacja stacji Temp. czynnik chłodzący wiatru Punkt rosy Wilgotność Wiatr Precip. Wysokość Uaktualniono Typ